NCAR-RAP Real-Time Weather Data

Output produced by METARs form (04 July 2015  04:59 UTC)
found at http://weather.rap.ucar.edu/surface/
 
Conditions at: KSDF observed 04 July 2015  04:51 UTC
Temperature: 23.0°C (73°F)
Dewpoint: 21.0°C (70°F) [RH = 89%]
Pressure (altimeter): 29.89 inches Hg (1012.3 mb)
Winds: calm
Visibility: 5 miles (8 km)
Ceiling: 2000 feet AGL
Clouds: few clouds at 800 feet AGL
scattered clouds at 1200 feet AGL
broken clouds at 2000 feet AGL
Present Weather: BR  (mist)
SOME DATA ABOVE MAY BE INACCURATE!!!
"$" is an indication the sensor requires maintenance
KSDF 040451Z 00000KT 5SM BR FEW008 SCT012 BKN020 23/21 A2989 RMK AO2 $